sensor_id;sensor_type;location;lat;lon;timestamp;P1;durP1;ratioP1;P2;durP2;ratioP2
47289;SDS011;33197;52.524;13.444;2023-06-04T00:00:08;3.05;;;1.80;;
47289;SDS011;33197;52.524;13.444;2023-06-04T00:02:36;3.28;;;1.77;;
47289;SDS011;33197;52.524;13.444;2023-06-04T00:05:08;4.97;;;2.25;;
47289;SDS011;33197;52.524;13.444;2023-06-04T00:07:52;4.93;;;2.35;;
47289;SDS011;33197;52.524;13.444;2023-06-04T00:10:22;2.65;;;1.83;;
47289;SDS011;33197;52.524;13.444;2023-06-04T00:12:53;3.97;;;2.05;;
47289;SDS011;33197;52.524;13.444;2023-06-04T00:15:22;2.65;;;1.70;;
47289;SDS011;33197;52.524;13.444;2023-06-04T00:17:51;5.57;;;1.40;;
47289;SDS011;33197;52.524;13.444;2023-06-04T00:20:19;3.58;;;1.55;;
47289;SDS011;33197;52.524;13.444;2023-06-04T00:22:48;2.45;;;1.50;;
47289;SDS011;33197;52.524;13.444;2023-06-04T00:25:28;4.80;;;1.85;;
47289;SDS011;33197;52.524;13.444;2023-06-04T00:27:59;2.28;;;1.45;;
47289;SDS011;33197;52.524;13.444;2023-06-04T00:30:30;2.90;;;1.73;;
47289;SDS011;33197;52.524;13.444;2023-06-04T00:33:00;5.40;;;1.30;;
47289;SDS011;33197;52.524;13.444;2023-06-04T00:35:28;2.10;;;1.30;;
47289;SDS011;33197;52.524;13.444;2023-06-04T00:37:59;2.50;;;1.55;;
47289;SDS011;33197;52.524;13.444;2023-06-04T00:40:28;3.13;;;1.33;;
47289;SDS011;33197;52.524;13.444;2023-06-04T00:42:57;5.00;;;1.38;;
47289;SDS011;33197;52.524;13.444;2023-06-04T00:45:26;3.30;;;1.35;;
47289;SDS011;33197;52.524;13.444;2023-06-04T00:47:59;3.00;;;1.30;;
47289;SDS011;33197;52.524;13.444;2023-06-04T00:50:32;2.92;;;1.40;;
47289;SDS011;33197;52.524;13.444;2023-06-04T00:53:02;3.75;;;1.50;;
47289;SDS011;33197;52.524;13.444;2023-06-04T00:55:34;2.60;;;1.55;;
47289;SDS011;33197;52.524;13.444;2023-06-04T00:58:17;4.05;;;1.30;;
47289;SDS011;33197;52.524;13.444;2023-06-04T01:00:53;4.97;;;1.38;;
47289;SDS011;33197;52.524;13.444;2023-06-04T01:03:25;3.67;;;2.10;;
47289;SDS011;33197;52.524;13.444;2023-06-04T01:06:04;3.13;;;1.50;;
47289;SDS011;33197;52.524;13.444;2023-06-04T01:09:05;3.28;;;1.88;;
47289;SDS011;33197;52.524;13.444;2023-06-04T01:11:33;4.47;;;1.75;;
47289;SDS011;33197;52.524;13.444;2023-06-04T01:14:04;2.65;;;1.35;;
47289;SDS011;33197;52.524;13.444;2023-06-04T01:28:09;1.90;;;1.15;;
47289;SDS011;33197;52.524;13.444;2023-06-04T01:30:41;4.00;;;1.92;;
47289;SDS011;33197;52.524;13.444;2023-06-04T01:33:18;4.43;;;1.65;;
47289;SDS011;33197;52.524;13.444;2023-06-04T01:35:55;2.65;;;1.50;;
47289;SDS011;33197;52.524;13.444;2023-06-04T01:38:29;3.38;;;1.30;;
47289;SDS011;33197;52.524;13.444;2023-06-04T01:41:04;5.17;;;1.73;;
47289;SDS011;33197;52.524;13.444;2023-06-04T01:43:34;2.50;;;1.58;;
47289;SDS011;33197;52.524;13.444;2023-06-04T01:49:38;2.45;;;1.60;;
47289;SDS011;33197;52.524;13.444;2023-06-04T01:52:17;2.47;;;1.60;;
47289;SDS011;33197;52.524;13.444;2023-06-04T01:54:55;4.38;;;1.80;;
47289;SDS011;33197;52.524;13.444;2023-06-04T01:57:23;2.75;;;1.65;;
47289;SDS011;33197;52.524;13.444;2023-06-04T01:59:53;5.78;;;1.90;;
47289;SDS011;33197;52.524;13.444;2023-06-04T02:02:23;4.65;;;2.00;;
47289;SDS011;33197;52.524;13.444;2023-06-04T02:04:52;4.80;;;1.70;;
47289;SDS011;33197;52.524;13.444;2023-06-04T02:07:22;4.88;;;1.73;;
47289;SDS011;33197;52.524;13.444;2023-06-04T02:10:01;3.63;;;2.03;;
47289;SDS011;33197;52.524;13.444;2023-06-04T02:12:36;4.72;;;1.75;;
47289;SDS011;33197;52.524;13.444;2023-06-04T02:15:09;3.22;;;2.03;;
47289;SDS011;33197;52.524;13.444;2023-06-04T02:18:53;4.93;;;2.10;;
47289;SDS011;33197;52.524;13.444;2023-06-04T02:21:26;2.63;;;1.83;;
47289;SDS011;33197;52.524;13.444;2023-06-04T02:23:55;3.55;;;1.88;;
47289;SDS011;33197;52.524;13.444;2023-06-04T02:26:23;3.53;;;1.63;;
47289;SDS011;33197;52.524;13.444;2023-06-04T02:28:52;5.97;;;1.52;;
47289;SDS011;33197;52.524;13.444;2023-06-04T02:31:23;3.53;;;2.15;;
47289;SDS011;33197;52.524;13.444;2023-06-04T02:33:53;8.85;;;2.60;;
47289;SDS011;33197;52.524;13.444;2023-06-04T02:36:28;3.13;;;1.55;;
47289;SDS011;33197;52.524;13.444;2023-06-04T02:39:05;3.08;;;1.75;;
47289;SDS011;33197;52.524;13.444;2023-06-04T02:41:33;4.57;;;2.22;;
47289;SDS011;33197;52.524;13.444;2023-06-04T02:44:04;5.53;;;1.63;;
47289;SDS011;33197;52.524;13.444;2023-06-04T02:46:31;2.83;;;1.77;;
47289;SDS011;33197;52.524;13.444;2023-06-04T02:49:04;3.40;;;1.75;;
47289;SDS011;33197;52.524;13.444;2023-06-04T02:51:38;3.40;;;1.50;;
47289;SDS011;33197;52.524;13.444;2023-06-04T02:54:05;2.95;;;1.55;;
47289;SDS011;33197;52.524;13.444;2023-06-04T02:56:33;8.77;;;1.95;;
47289;SDS011;33197;52.524;13.444;2023-06-04T02:59:09;2.28;;;1.67;;
47289;SDS011;33197;52.524;13.444;2023-06-04T03:01:40;2.78;;;1.73;;
47289;SDS011;33197;52.524;13.444;2023-06-04T03:04:19;4.78;;;1.70;;
47289;SDS011;33197;52.524;13.444;2023-06-04T03:06:54;5.18;;;2.10;;
47289;SDS011;33197;52.524;13.444;2023-06-04T03:09:24;3.00;;;1.40;;
47289;SDS011;33197;52.524;13.444;2023-06-04T03:11:53;4.60;;;2.13;;
47289;SDS011;33197;52.524;13.444;2023-06-04T03:14:31;11.35;;;2.08;;
47289;SDS011;33197;52.524;13.444;2023-06-04T03:17:04;7.00;;;2.25;;
47289;SDS011;33197;52.524;13.444;2023-06-04T03:19:42;4.95;;;2.00;;
47289;SDS011;33197;52.524;13.444;2023-06-04T03:22:14;3.33;;;1.83;;
47289;SDS011;33197;52.524;13.444;2023-06-04T03:24:47;6.07;;;2.03;;
47289;SDS011;33197;52.524;13.444;2023-06-04T03:27:16;4.40;;;1.90;;
47289;SDS011;33197;52.524;13.444;2023-06-04T03:29:46;4.63;;;2.00;;
47289;SDS011;33197;52.524;13.444;2023-06-04T03:32:15;12.18;;;2.85;;
47289;SDS011;33197;52.524;13.444;2023-06-04T03:34:46;3.35;;;1.80;;
47289;SDS011;33197;52.524;13.444;2023-06-04T03:37:21;7.57;;;2.05;;
47289;SDS011;33197;52.524;13.444;2023-06-04T03:39:54;3.55;;;1.90;;
47289;SDS011;33197;52.524;13.444;2023-06-04T03:42:31;9.65;;;1.52;;
47289;SDS011;33197;52.524;13.444;2023-06-04T03:45:02;4.20;;;2.25;;
47289;SDS011;33197;52.524;13.444;2023-06-04T03:47:34;5.88;;;2.15;;
47289;SDS011;33197;52.524;13.444;2023-06-04T03:50:10;5.10;;;2.17;;
47289;SDS011;33197;52.524;13.444;2023-06-04T03:52:47;3.53;;;1.70;;
47289;SDS011;33197;52.524;13.444;2023-06-04T03:55:22;3.25;;;1.80;;
47289;SDS011;33197;52.524;13.444;2023-06-04T03:57:51;3.97;;;1.90;;
47289;SDS011;33197;52.524;13.444;2023-06-04T04:00:31;8.18;;;1.95;;
47289;SDS011;33197;52.524;13.444;2023-06-04T04:03:06;6.95;;;2.25;;
47289;SDS011;33197;52.524;13.444;2023-06-04T04:05:48;6.15;;;2.25;;
47289;SDS011;33197;52.524;13.444;2023-06-04T04:08:19;8.02;;;2.05;;
47289;SDS011;33197;52.524;13.444;2023-06-04T04:10:50;4.35;;;1.85;;
47289;SDS011;33197;52.524;13.444;2023-06-04T04:13:19;4.80;;;1.83;;
47289;SDS011;33197;52.524;13.444;2023-06-04T04:15:50;4.45;;;2.13;;
47289;SDS011;33197;52.524;13.444;2023-06-04T04:18:20;5.50;;;2.13;;
47289;SDS011;33197;52.524;13.444;2023-06-04T04:20:52;5.47;;;1.85;;
47289;SDS011;33197;52.524;13.444;2023-06-04T04:23:25;5.05;;;2.22;;
47289;SDS011;33197;52.524;13.444;2023-06-04T04:25:54;4.30;;;1.67;;
47289;SDS011;33197;52.524;13.444;2023-06-04T04:28:23;3.33;;;1.95;;
47289;SDS011;33197;52.524;13.444;2023-06-04T04:30:54;7.13;;;2.20;;
47289;SDS011;33197;52.524;13.444;2023-06-04T04:33:24;7.53;;;2.00;;
47289;SDS011;33197;52.524;13.444;2023-06-04T04:35:53;4.72;;;2.15;;
47289;SDS011;33197;52.524;13.444;2023-06-04T04:38:23;3.25;;;1.90;;
47289;SDS011;33197;52.524;13.444;2023-06-04T04:40:58;5.55;;;2.25;;
47289;SDS011;33197;52.524;13.444;2023-06-04T04:43:28;7.22;;;2.08;;
47289;SDS011;33197;52.524;13.444;2023-06-04T04:46:02;4.00;;;2.08;;
47289;SDS011;33197;52.524;13.444;2023-06-04T04:48:33;3.65;;;2.20;;
47289;SDS011;33197;52.524;13.444;2023-06-04T04:51:05;2.95;;;1.70;;
47289;SDS011;33197;52.524;13.444;2023-06-04T04:53:37;5.38;;;1.95;;
47289;SDS011;33197;52.524;13.444;2023-06-04T04:56:05;8.77;;;1.80;;
47289;SDS011;33197;52.524;13.444;2023-06-04T04:58:34;3.05;;;1.90;;
47289;SDS011;33197;52.524;13.444;2023-06-04T05:01:06;5.00;;;2.30;;
47289;SDS011;33197;52.524;13.444;2023-06-04T05:03:36;5.05;;;1.80;;
47289;SDS011;33197;52.524;13.444;2023-06-04T05:06:11;3.78;;;1.95;;
47289;SDS011;33197;52.524;13.444;2023-06-04T05:08:38;3.10;;;2.08;;
47289;SDS011;33197;52.524;13.444;2023-06-04T05:11:09;5.28;;;1.90;;
47289;SDS011;33197;52.524;13.444;2023-06-04T05:13:38;6.47;;;1.95;;
47289;SDS011;33197;52.524;13.444;2023-06-04T05:16:11;4.88;;;1.83;;
47289;SDS011;33197;52.524;13.444;2023-06-04T05:18:42;4.38;;;1.85;;
47289;SDS011;33197;52.524;13.444;2023-06-04T05:21:13;8.25;;;2.20;;
47289;SDS011;33197;52.524;13.444;2023-06-04T05:23:48;5.45;;;2.25;;
47289;SDS011;33197;52.524;13.444;2023-06-04T05:26:17;4.00;;;2.05;;
47289;SDS011;33197;52.524;13.444;2023-06-04T05:28:45;2.28;;;1.48;;
47289;SDS011;33197;52.524;13.444;2023-06-04T05:31:15;2.90;;;1.52;;
47289;SDS011;33197;52.524;13.444;2023-06-04T05:33:47;5.03;;;2.10;;
47289;SDS011;33197;52.524;13.444;2023-06-04T05:36:19;3.95;;;1.98;;
47289;SDS011;33197;52.524;13.444;2023-06-04T05:38:53;5.32;;;1.67;;
47289;SDS011;33197;52.524;13.444;2023-06-04T05:41:29;3.03;;;1.80;;
47289;SDS011;33197;52.524;13.444;2023-06-04T05:44:00;3.85;;;2.00;;
47289;SDS011;33197;52.524;13.444;2023-06-04T05:46:32;5.10;;;2.05;;
47289;SDS011;33197;52.524;13.444;2023-06-04T05:49:09;3.25;;;1.60;;
47289;SDS011;33197;52.524;13.444;2023-06-04T05:51:36;5.03;;;2.00;;
47289;SDS011;33197;52.524;13.444;2023-06-04T05:54:05;2.88;;;1.80;;
47289;SDS011;33197;52.524;13.444;2023-06-04T05:56:32;3.80;;;1.80;;
47289;SDS011;33197;52.524;13.444;2023-06-04T05:59:05;4.53;;;1.50;;
47289;SDS011;33197;52.524;13.444;2023-06-04T06:01:35;2.53;;;1.50;;
47289;SDS011;33197;52.524;13.444;2023-06-04T06:04:20;5.43;;;2.28;;
47289;SDS011;33197;52.524;13.444;2023-06-04T06:06:47;3.10;;;1.77;;
47289;SDS011;33197;52.524;13.444;2023-06-04T06:09:15;3.97;;;1.83;;
47289;SDS011;33197;52.524;13.444;2023-06-04T06:11:50;4.73;;;1.33;;
47289;SDS011;33197;52.524;13.444;2023-06-04T06:14:20;3.58;;;1.20;;
47289;SDS011;33197;52.524;13.444;2023-06-04T06:17:06;4.22;;;1.40;;
47289;SDS011;33197;52.524;13.444;2023-06-04T06:19:41;3.42;;;1.50;;
47289;SDS011;33197;52.524;13.444;2023-06-04T06:22:08;3.00;;;1.20;;
47289;SDS011;33197;52.524;13.444;2023-06-04T06:24:39;5.53;;;1.40;;
47289;SDS011;33197;52.524;13.444;2023-06-04T06:27:08;5.25;;;1.30;;
47289;SDS011;33197;52.524;13.444;2023-06-04T06:29:38;3.15;;;1.60;;
47289;SDS011;33197;52.524;13.444;2023-06-04T06:32:15;3.10;;;1.23;;
47289;SDS011;33197;52.524;13.444;2023-06-04T06:34:46;3.88;;;1.30;;
47289;SDS011;33197;52.524;13.444;2023-06-04T06:37:14;6.00;;;1.70;;
47289;SDS011;33197;52.524;13.444;2023-06-04T06:39:42;4.38;;;1.30;;
47289;SDS011;33197;52.524;13.444;2023-06-04T06:42:09;5.00;;;1.35;;
47289;SDS011;33197;52.524;13.444;2023-06-04T06:44:36;3.38;;;1.58;;
47289;SDS011;33197;52.524;13.444;2023-06-04T06:47:06;4.63;;;1.05;;
47289;SDS011;33197;52.524;13.444;2023-06-04T06:49:37;5.03;;;1.38;;
47289;SDS011;33197;52.524;13.444;2023-06-04T06:52:07;4.82;;;1.20;;
47289;SDS011;33197;52.524;13.444;2023-06-04T06:54:34;2.28;;;0.98;;
47289;SDS011;33197;52.524;13.444;2023-06-04T06:57:04;3.22;;;1.13;;
47289;SDS011;33197;52.524;13.444;2023-06-04T06:59:35;3.40;;;1.05;;
47289;SDS011;33197;52.524;13.444;2023-06-04T07:02:05;5.45;;;0.90;;
47289;SDS011;33197;52.524;13.444;2023-06-04T07:04:33;2.08;;;1.15;;
47289;SDS011;33197;52.524;13.444;2023-06-04T07:07:04;3.72;;;0.82;;
47289;SDS011;33197;52.524;13.444;2023-06-04T07:09:32;5.40;;;1.38;;
47289;SDS011;33197;52.524;13.444;2023-06-04T07:12:02;2.85;;;1.27;;
47289;SDS011;33197;52.524;13.444;2023-06-04T07:14:31;1.65;;;0.90;;
47289;SDS011;33197;52.524;13.444;2023-06-04T07:16:59;3.15;;;0.90;;
47289;SDS011;33197;52.524;13.444;2023-06-04T07:19:31;3.25;;;1.40;;
47289;SDS011;33197;52.524;13.444;2023-06-04T07:22:00;8.35;;;1.13;;
47289;SDS011;33197;52.524;13.444;2023-06-04T07:24:30;6.18;;;1.42;;
47289;SDS011;33197;52.524;13.444;2023-06-04T07:27:00;3.70;;;1.00;;
47289;SDS011;33197;52.524;13.444;2023-06-04T07:29:49;8.00;;;1.00;;
47289;SDS011;33197;52.524;13.444;2023-06-04T07:32:17;2.65;;;0.70;;
47289;SDS011;33197;52.524;13.444;2023-06-04T07:34:44;4.72;;;0.93;;
47289;SDS011;33197;52.524;13.444;2023-06-04T07:37:12;2.47;;;0.75;;
47289;SDS011;33197;52.524;13.444;2023-06-04T07:40:06;4.55;;;1.13;;
47289;SDS011;33197;52.524;13.444;2023-06-04T07:42:34;2.85;;;1.00;;
47289;SDS011;33197;52.524;13.444;2023-06-04T07:45:07;3.67;;;1.17;;
47289;SDS011;33197;52.524;13.444;2023-06-04T07:47:38;8.40;;;1.30;;
47289;SDS011;33197;52.524;13.444;2023-06-04T07:50:08;6.65;;;1.80;;
47289;SDS011;33197;52.524;13.444;2023-06-04T07:52:37;6.57;;;1.40;;
47289;SDS011;33197;52.524;13.444;2023-06-04T07:55:04;3.20;;;1.63;;
47289;SDS011;33197;52.524;13.444;2023-06-04T07:57:32;16.45;;;2.50;;
47289;SDS011;33197;52.524;13.444;2023-06-04T08:00:00;9.98;;;1.77;;
47289;SDS011;33197;52.524;13.444;2023-06-04T08:02:33;5.07;;;1.42;;
47289;SDS011;33197;52.524;13.444;2023-06-04T08:05:01;2.85;;;1.25;;
47289;SDS011;33197;52.524;13.444;2023-06-04T08:07:29;3.45;;;1.10;;
47289;SDS011;33197;52.524;13.444;2023-06-04T08:09:59;1.45;;;1.00;;
47289;SDS011;33197;52.524;13.444;2023-06-04T08:12:27;1.80;;;0.80;;
47289;SDS011;33197;52.524;13.444;2023-06-04T08:14:58;5.10;;;1.00;;
47289;SDS011;33197;52.524;13.444;2023-06-04T08:17:25;2.17;;;0.82;;
47289;SDS011;33197;52.524;13.444;2023-06-04T08:19:52;2.75;;;1.10;;
47289;SDS011;33197;52.524;13.444;2023-06-04T08:22:20;4.18;;;0.90;;
47289;SDS011;33197;52.524;13.444;2023-06-04T08:24:47;5.43;;;0.88;;
47289;SDS011;33197;52.524;13.444;2023-06-04T08:27:15;2.00;;;0.90;;
47289;SDS011;33197;52.524;13.444;2023-06-04T08:29:44;2.20;;;0.85;;
47289;SDS011;33197;52.524;13.444;2023-06-04T08:32:14;4.32;;;1.55;;
47289;SDS011;33197;52.524;13.444;2023-06-04T08:34:44;3.08;;;0.82;;
47289;SDS011;33197;52.524;13.444;2023-06-04T08:37:12;3.70;;;0.80;;
47289;SDS011;33197;52.524;13.444;2023-06-04T08:39:39;3.20;;;1.33;;
47289;SDS011;33197;52.524;13.444;2023-06-04T08:42:06;4.18;;;0.82;;
47289;SDS011;33197;52.524;13.444;2023-06-04T08:44:38;1.77;;;0.80;;
47289;SDS011;33197;52.524;13.444;2023-06-04T08:47:06;2.38;;;0.90;;
47289;SDS011;33197;52.524;13.444;2023-06-04T08:49:37;3.70;;;0.93;;
47289;SDS011;33197;52.524;13.444;2023-06-04T08:52:12;4.13;;;1.10;;
47289;SDS011;33197;52.524;13.444;2023-06-04T08:54:39;3.00;;;1.08;;
47289;SDS011;33197;52.524;13.444;2023-06-04T08:57:09;3.78;;;1.08;;
47289;SDS011;33197;52.524;13.444;2023-06-04T08:59:41;3.63;;;0.82;;
47289;SDS011;33197;52.524;13.444;2023-06-04T09:02:12;1.27;;;1.05;;
47289;SDS011;33197;52.524;13.444;2023-06-04T09:04:44;1.77;;;1.00;;
47289;SDS011;33197;52.524;13.444;2023-06-04T09:07:14;2.15;;;1.00;;
47289;SDS011;33197;52.524;13.444;2023-06-04T09:09:44;3.38;;;1.40;;
47289;SDS011;33197;52.524;13.444;2023-06-04T09:12:23;2.50;;;0.80;;
47289;SDS011;33197;52.524;13.444;2023-06-04T09:19:10;2.88;;;0.93;;
47289;SDS011;33197;52.524;13.444;2023-06-04T09:21:51;0.70;;;0.60;;
47289;SDS011;33197;52.524;13.444;2023-06-04T09:24:23;2.95;;;0.95;;
47289;SDS011;33197;52.524;13.444;2023-06-04T09:26:51;1.60;;;0.90;;
47289;SDS011;33197;52.524;13.444;2023-06-04T09:29:21;1.83;;;1.10;;
47289;SDS011;33197;52.524;13.444;2023-06-04T09:31:57;1.92;;;0.90;;
47289;SDS011;33197;52.524;13.444;2023-06-04T09:34:28;3.33;;;0.95;;
47289;SDS011;33197;52.524;13.444;2023-06-04T09:36:57;1.52;;;1.00;;
47289;SDS011;33197;52.524;13.444;2023-06-04T09:39:25;4.60;;;0.93;;
47289;SDS011;33197;52.524;13.444;2023-06-04T09:41:57;4.72;;;1.05;;
47289;SDS011;33197;52.524;13.444;2023-06-04T09:44:29;2.15;;;0.75;;
47289;SDS011;33197;52.524;13.444;2023-06-04T09:46:57;2.38;;;1.05;;
47289;SDS011;33197;52.524;13.444;2023-06-04T09:49:25;2.00;;;0.98;;
47289;SDS011;33197;52.524;13.444;2023-06-04T09:51:59;2.78;;;1.00;;
47289;SDS011;33197;52.524;13.444;2023-06-04T09:54:37;5.22;;;1.13;;
47289;SDS011;33197;52.524;13.444;2023-06-04T09:57:16;1.15;;;0.88;;
47289;SDS011;33197;52.524;13.444;2023-06-04T09:59:45;4.47;;;1.05;;
47289;SDS011;33197;52.524;13.444;2023-06-04T10:02:20;2.65;;;1.45;;
47289;SDS011;33197;52.524;13.444;2023-06-04T10:04:49;3.78;;;0.90;;
47289;SDS011;33197;52.524;13.444;2023-06-04T10:07:22;1.98;;;1.10;;
47289;SDS011;33197;52.524;13.444;2023-06-04T10:09:52;2.20;;;0.98;;
47289;SDS011;33197;52.524;13.444;2023-06-04T10:12:25;5.70;;;1.67;;
47289;SDS011;33197;52.524;13.444;2023-06-04T10:15:07;3.13;;;1.40;;
47289;SDS011;33197;52.524;13.444;2023-06-04T10:17:47;3.55;;;1.13;;
47289;SDS011;33197;52.524;13.444;2023-06-04T10:20:18;2.90;;;0.95;;
47289;SDS011;33197;52.524;13.444;2023-06-04T10:22:50;1.67;;;0.85;;
47289;SDS011;33197;52.524;13.444;2023-06-04T10:25:21;1.38;;;0.75;;
47289;SDS011;33197;52.524;13.444;2023-06-04T10:27:50;4.95;;;1.73;;
47289;SDS011;33197;52.524;13.444;2023-06-04T10:30:19;6.13;;;3.15;;
47289;SDS011;33197;52.524;13.444;2023-06-04T10:32:50;4.75;;;2.92;;
47289;SDS011;33197;52.524;13.444;2023-06-04T10:35:28;3.33;;;1.80;;
47289;SDS011;33197;52.524;13.444;2023-06-04T10:38:09;5.57;;;1.20;;
47289;SDS011;33197;52.524;13.444;2023-06-04T10:40:38;5.70;;;1.95;;
47289;SDS011;33197;52.524;13.444;2023-06-04T10:43:13;5.65;;;1.67;;
47289;SDS011;33197;52.524;13.444;2023-06-04T10:45:44;3.30;;;0.90;;
47289;SDS011;33197;52.524;13.444;2023-06-04T10:48:12;2.28;;;0.75;;
47289;SDS011;33197;52.524;13.444;2023-06-04T10:50:52;4.82;;;1.67;;
47289;SDS011;33197;52.524;13.444;2023-06-04T10:53:22;5.32;;;2.13;;
47289;SDS011;33197;52.524;13.444;2023-06-04T10:55:50;6.22;;;3.17;;
47289;SDS011;33197;52.524;13.444;2023-06-04T10:58:18;3.25;;;1.10;;
47289;SDS011;33197;52.524;13.444;2023-06-04T11:00:47;4.93;;;1.10;;
47289;SDS011;33197;52.524;13.444;2023-06-04T11:03:18;3.83;;;1.13;;
47289;SDS011;33197;52.524;13.444;2023-06-04T11:05:46;3.30;;;1.23;;
47289;SDS011;33197;52.524;13.444;2023-06-04T11:08:28;2.60;;;1.30;;
47289;SDS011;33197;52.524;13.444;2023-06-04T11:11:09;3.92;;;1.30;;
47289;SDS011;33197;52.524;13.444;2023-06-04T11:13:37;4.97;;;1.02;;
47289;SDS011;33197;52.524;13.444;2023-06-04T11:16:15;2.60;;;1.00;;
47289;SDS011;33197;52.524;13.444;2023-06-04T11:18:55;4.50;;;1.20;;
47289;SDS011;33197;52.524;13.444;2023-06-04T11:21:23;2.40;;;1.08;;
47289;SDS011;33197;52.524;13.444;2023-06-04T11:24:00;2.78;;;1.27;;
47289;SDS011;33197;52.524;13.444;2023-06-04T11:26:36;2.22;;;1.02;;
47289;SDS011;33197;52.524;13.444;2023-06-04T11:29:10;1.92;;;1.00;;
47289;SDS011;33197;52.524;13.444;2023-06-04T11:31:44;2.17;;;1.10;;
47289;SDS011;33197;52.524;13.444;2023-06-04T11:34:26;1.88;;;0.90;;
47289;SDS011;33197;52.524;13.444;2023-06-04T11:36:54;4.15;;;0.95;;
47289;SDS011;33197;52.524;13.444;2023-06-04T11:39:22;1.95;;;0.90;;
47289;SDS011;33197;52.524;13.444;2023-06-04T11:41:51;2.45;;;0.95;;
47289;SDS011;33197;52.524;13.444;2023-06-04T11:44:20;1.60;;;0.93;;
47289;SDS011;33197;52.524;13.444;2023-06-04T11:46:50;3.58;;;1.05;;
47289;SDS011;33197;52.524;13.444;2023-06-04T11:49:19;1.73;;;0.82;;
47289;SDS011;33197;52.524;13.444;2023-06-04T11:51:50;1.25;;;0.93;;
47289;SDS011;33197;52.524;13.444;2023-06-04T11:54:23;3.17;;;1.20;;
47289;SDS011;33197;52.524;13.444;2023-06-04T11:56:51;2.65;;;0.93;;
47289;SDS011;33197;52.524;13.444;2023-06-04T11:59:18;1.90;;;1.38;;
47289;SDS011;33197;52.524;13.444;2023-06-04T12:01:47;3.70;;;1.00;;
47289;SDS011;33197;52.524;13.444;2023-06-04T12:04:16;4.63;;;1.30;;
47289;SDS011;33197;52.524;13.444;2023-06-04T12:06:53;2.25;;;1.20;;
47289;SDS011;33197;52.524;13.444;2023-06-04T12:09:24;1.33;;;0.90;;
47289;SDS011;33197;52.524;13.444;2023-06-04T12:12:02;2.58;;;1.40;;
47289;SDS011;33197;52.524;13.444;2023-06-04T12:14:31;3.20;;;1.10;;
47289;SDS011;33197;52.524;13.444;2023-06-04T12:17:00;1.73;;;1.13;;
47289;SDS011;33197;52.524;13.444;2023-06-04T12:19:45;2.75;;;1.45;;
47289;SDS011;33197;52.524;13.444;2023-06-04T12:22:19;2.30;;;1.73;;
47289;SDS011;33197;52.524;13.444;2023-06-04T12:24:50;4.75;;;1.40;;
47289;SDS011;33197;52.524;13.444;2023-06-04T12:27:23;3.53;;;0.90;;
47289;SDS011;33197;52.524;13.444;2023-06-04T12:29:59;3.05;;;1.17;;
47289;SDS011;33197;52.524;13.444;2023-06-04T12:32:30;1.73;;;0.75;;
47289;SDS011;33197;52.524;13.444;2023-06-04T12:35:01;1.98;;;1.13;;
47289;SDS011;33197;52.524;13.444;2023-06-04T12:37:33;2.85;;;1.20;;
47289;SDS011;33197;52.524;13.444;2023-06-04T12:40:01;2.60;;;1.20;;
47289;SDS011;33197;52.524;13.444;2023-06-04T12:42:33;3.20;;;1.15;;
47289;SDS011;33197;52.524;13.444;2023-06-04T12:45:03;2.95;;;1.20;;
47289;SDS011;33197;52.524;13.444;2023-06-04T12:47:32;2.08;;;1.10;;
47289;SDS011;33197;52.524;13.444;2023-06-04T12:50:01;2.85;;;1.13;;
47289;SDS011;33197;52.524;13.444;2023-06-04T12:52:31;3.83;;;1.08;;
47289;SDS011;33197;52.524;13.444;2023-06-04T12:55:02;2.55;;;1.10;;
47289;SDS011;33197;52.524;13.444;2023-06-04T12:57:30;4.63;;;1.33;;
47289;SDS011;33197;52.524;13.444;2023-06-04T12:59:57;1.75;;;0.98;;
47289;SDS011;33197;52.524;13.444;2023-06-04T13:02:25;4.15;;;1.33;;
47289;SDS011;33197;52.524;13.444;2023-06-04T13:04:54;4.57;;;1.60;;
47289;SDS011;33197;52.524;13.444;2023-06-04T13:07:23;3.55;;;1.08;;
47289;SDS011;33197;52.524;13.444;2023-06-04T13:09:54;1.75;;;1.25;;
47289;SDS011;33197;52.524;13.444;2023-06-04T13:12:21;2.35;;;1.33;;
47289;SDS011;33197;52.524;13.444;2023-06-04T13:14:49;2.33;;;1.05;;
47289;SDS011;33197;52.524;13.444;2023-06-04T13:17:16;2.17;;;1.20;;
47289;SDS011;33197;52.524;13.444;2023-06-04T13:19:49;1.50;;;1.20;;
47289;SDS011;33197;52.524;13.444;2023-06-04T13:22:19;1.65;;;1.08;;
47289;SDS011;33197;52.524;13.444;2023-06-04T13:24:50;4.40;;;1.38;;
47289;SDS011;33197;52.524;13.444;2023-06-04T13:27:17;3.83;;;1.55;;
47289;SDS011;33197;52.524;13.444;2023-06-04T13:29:48;3.85;;;1.40;;
47289;SDS011;33197;52.524;13.444;2023-06-04T13:32:15;3.35;;;2.03;;
47289;SDS011;33197;52.524;13.444;2023-06-04T13:34:44;6.53;;;1.88;;
47289;SDS011;33197;52.524;13.444;2023-06-04T13:37:14;2.28;;;1.30;;
47289;SDS011;33197;52.524;13.444;2023-06-04T13:39:41;3.53;;;1.50;;
47289;SDS011;33197;52.524;13.444;2023-06-04T13:42:11;1.95;;;1.08;;
47289;SDS011;33197;52.524;13.444;2023-06-04T13:44:39;6.35;;;1.20;;
47289;SDS011;33197;52.524;13.444;2023-06-04T13:47:11;1.88;;;1.10;;
47289;SDS011;33197;52.524;13.444;2023-06-04T13:49:41;1.05;;;0.85;;
47289;SDS011;33197;52.524;13.444;2023-06-04T13:52:08;1.40;;;1.20;;
47289;SDS011;33197;52.524;13.444;2023-06-04T13:58:59;5.75;;;1.35;;
47289;SDS011;33197;52.524;13.444;2023-06-04T14:01:28;2.15;;;1.10;;
47289;SDS011;33197;52.524;13.444;2023-06-04T14:03:55;3.17;;;1.40;;
47289;SDS011;33197;52.524;13.444;2023-06-04T14:06:26;8.77;;;1.25;;
47289;SDS011;33197;52.524;13.444;2023-06-04T14:08:59;2.05;;;1.25;;
47289;SDS011;33197;52.524;13.444;2023-06-04T14:11:26;2.95;;;1.30;;
47289;SDS011;33197;52.524;13.444;2023-06-04T14:13:59;1.77;;;1.00;;
47289;SDS011;33197;52.524;13.444;2023-06-04T14:16:31;4.45;;;1.30;;
47289;SDS011;33197;52.524;13.444;2023-06-04T14:19:00;3.05;;;1.35;;
47289;SDS011;33197;52.524;13.444;2023-06-04T14:21:28;3.58;;;1.20;;
47289;SDS011;33197;52.524;13.444;2023-06-04T14:23:56;9.20;;;1.38;;
47289;SDS011;33197;52.524;13.444;2023-06-04T14:26:23;2.60;;;1.55;;
47289;SDS011;33197;52.524;13.444;2023-06-04T14:28:51;2.30;;;1.23;;
47289;SDS011;33197;52.524;13.444;2023-06-04T14:31:21;3.63;;;1.42;;
47289;SDS011;33197;52.524;13.444;2023-06-04T14:33:51;7.53;;;2.00;;
47289;SDS011;33197;52.524;13.444;2023-06-04T14:36:19;2.70;;;1.35;;
47289;SDS011;33197;52.524;13.444;2023-06-04T14:38:49;2.88;;;1.23;;
47289;SDS011;33197;52.524;13.444;2023-06-04T14:41:17;3.42;;;1.23;;
47289;SDS011;33197;52.524;13.444;2023-06-04T14:43:44;1.52;;;1.42;;
47289;SDS011;33197;52.524;13.444;2023-06-04T14:46:12;5.22;;;1.60;;
47289;SDS011;33197;52.524;13.444;2023-06-04T14:48:42;4.65;;;1.90;;
47289;SDS011;33197;52.524;13.444;2023-06-04T14:51:13;1.98;;;1.80;;
47289;SDS011;33197;52.524;13.444;2023-06-04T14:53:45;2.75;;;2.20;;
47289;SDS011;33197;52.524;13.444;2023-06-04T14:56:17;3.38;;;3.10;;
47289;SDS011;33197;52.524;13.444;2023-06-04T14:58:45;4.18;;;3.88;;
47289;SDS011;33197;52.524;13.444;2023-06-04T15:01:12;4.15;;;3.85;;
47289;SDS011;33197;52.524;13.444;2023-06-04T15:03:42;5.35;;;5.05;;
47289;SDS011;33197;52.524;13.444;2023-06-04T15:06:12;6.32;;;6.03;;
47289;SDS011;33197;52.524;13.444;2023-06-04T15:08:46;8.77;;;8.07;;
47289;SDS011;33197;52.524;13.444;2023-06-04T15:11:16;9.90;;;9.10;;
47289;SDS011;33197;52.524;13.444;2023-06-04T15:13:43;12.48;;;11.77;;
47289;SDS011;33197;52.524;13.444;2023-06-04T15:16:11;14.52;;;13.55;;
47289;SDS011;33197;52.524;13.444;2023-06-04T15:18:42;16.05;;;14.98;;
47289;SDS011;33197;52.524;13.444;2023-06-04T15:21:09;18.02;;;17.13;;